Cypress Inn, Tennessee
Current Conditions -  °F | °C
As of 6:04 AM on Monday 24 Nov 2014 (Local Time) from KMSL Reporting Station
Scattered Clouds Scattered Clouds  
Wind Chill: 63°   Ceiling: Unl
Heat Index: 63°   Visibility: 10mi
Dew Point: 52°   Wind: 20mph
Humidity: 68%   Direction: 240°WSW
Pressure: 29.65"   Gusts: 33mph
Location:  35.01°N, 87.82°W
Report Text: KMSL 241204Z AUTO 24017G29KT 10SM SCT027 SCT035 17/11 A2965 RMK AO2 PK WND 25029/1201
Loading
Personal Weather Stations






























Interactive Weather Map New forecast layout! Learn more

10-Day Weather Forecast

Advertisements
Track Severe Weather on mobile